sensor_id;sensor_type;location;lat;lon;timestamp;pressure;altitude;pressure_sealevel;temperature;humidity
28267;BME280;15525;45.568;5.448;2023-03-13T00:01:31;97989.03;;;14.63;55.84
28267;BME280;15525;45.568;5.448;2023-03-13T00:03:56;97994.94;;;14.65;55.90
28267;BME280;15525;45.568;5.448;2023-03-13T00:06:25;97996.47;;;14.71;55.97
28267;BME280;15525;45.568;5.448;2023-03-13T00:08:51;97933.91;;;14.42;55.72
28267;BME280;15525;45.568;5.448;2023-03-13T00:11:16;97995.69;;;14.84;55.75
28267;BME280;15525;45.568;5.448;2023-03-13T00:13:43;98021.34;;;15.09;55.67
28267;BME280;15525;45.568;5.448;2023-03-13T00:16:13;98025.34;;;15.11;55.61
28267;BME280;15525;45.568;5.448;2023-03-13T00:18:44;98022.16;;;15.09;55.73
28267;BME280;15525;45.568;5.448;2023-03-13T00:21:10;98027.84;;;15.08;56.35
28267;BME280;15525;45.568;5.448;2023-03-13T00:23:37;98022.53;;;15.03;55.99
28267;BME280;15525;45.568;5.448;2023-03-13T00:26:05;97932.25;;;14.46;55.97
28267;BME280;15525;45.568;5.448;2023-03-13T00:28:32;98008.00;;;14.72;56.76
28267;BME280;15525;45.568;5.448;2023-03-13T00:31:09;98032.22;;;14.90;56.65
28267;BME280;15525;45.568;5.448;2023-03-13T00:33:36;97999.16;;;14.71;56.46
28267;BME280;15525;45.568;5.448;2023-03-13T00:36:14;98019.53;;;14.91;57.38
28267;BME280;15525;45.568;5.448;2023-03-13T00:38:39;97997.56;;;14.84;56.54
28267;BME280;15525;45.568;5.448;2023-03-13T00:41:09;98008.16;;;14.80;56.62
28267;BME280;15525;45.568;5.448;2023-03-13T00:43:39;97998.53;;;14.74;56.80
28267;BME280;15525;45.568;5.448;2023-03-13T00:46:05;98037.00;;;14.93;56.76
28267;BME280;15525;45.568;5.448;2023-03-13T00:48:31;98010.84;;;14.80;57.05
28267;BME280;15525;45.568;5.448;2023-03-13T00:50:57;98036.84;;;15.03;56.89
28267;BME280;15525;45.568;5.448;2023-03-13T00:53:31;98007.44;;;14.88;57.05
28267;BME280;15525;45.568;5.448;2023-03-13T00:55:57;98030.72;;;15.11;56.76
28267;BME280;15525;45.568;5.448;2023-03-13T00:58:24;97976.19;;;14.74;56.58
28267;BME280;15525;45.568;5.448;2023-03-13T01:00:50;98005.16;;;14.95;56.86
28267;BME280;15525;45.568;5.448;2023-03-13T01:03:16;97979.38;;;14.76;56.97
28267;BME280;15525;45.568;5.448;2023-03-13T01:05:41;97951.44;;;14.58;57.23
28267;BME280;15525;45.568;5.448;2023-03-13T01:08:07;97984.28;;;14.87;57.09
28267;BME280;15525;45.568;5.448;2023-03-13T01:10:33;97974.19;;;14.79;57.34
28267;BME280;15525;45.568;5.448;2023-03-13T01:12:59;97996.56;;;14.93;57.09
28267;BME280;15525;45.568;5.448;2023-03-13T01:15:24;97959.75;;;14.75;57.13
28267;BME280;15525;45.568;5.448;2023-03-13T01:17:50;97971.00;;;14.77;57.13
28267;BME280;15525;45.568;5.448;2023-03-13T01:20:15;97925.69;;;14.52;57.49
28267;BME280;15525;45.568;5.448;2023-03-13T01:22:41;97880.78;;;14.34;57.16
28267;BME280;15525;45.568;5.448;2023-03-13T01:25:07;97861.00;;;14.25;57.25
28267;BME280;15525;45.568;5.448;2023-03-13T01:27:32;97927.66;;;14.60;57.18
28267;BME280;15525;45.568;5.448;2023-03-13T01:29:58;97967.72;;;14.94;56.89
28267;BME280;15525;45.568;5.448;2023-03-13T01:32:23;97941.84;;;14.79;56.83
28267;BME280;15525;45.568;5.448;2023-03-13T01:34:49;97930.19;;;14.84;56.81
28267;BME280;15525;45.568;5.448;2023-03-13T01:37:14;97932.31;;;14.87;56.77
28267;BME280;15525;45.568;5.448;2023-03-13T01:39:40;97922.28;;;14.60;57.36
28267;BME280;15525;45.568;5.448;2023-03-13T01:42:05;97885.53;;;14.37;57.37
28267;BME280;15525;45.568;5.448;2023-03-13T01:45:48;97957.66;;;14.99;57.32
28267;BME280;15525;45.568;5.448;2023-03-13T01:47:52;97923.59;;;14.76;56.56
28267;BME280;15525;45.568;5.448;2023-03-13T01:50:17;97947.06;;;14.89;56.45
28267;BME280;15525;45.568;5.448;2023-03-13T01:52:42;97923.31;;;14.78;56.55
28267;BME280;15525;45.568;5.448;2023-03-13T01:55:11;97965.66;;;15.04;56.69
28267;BME280;15525;45.568;5.448;2023-03-13T01:57:45;97937.28;;;14.93;57.21
28267;BME280;15525;45.568;5.448;2023-03-13T02:00:21;97957.84;;;15.03;56.72
28267;BME280;15525;45.568;5.448;2023-03-13T02:02:50;97940.69;;;14.85;57.12
28267;BME280;15525;45.568;5.448;2023-03-13T02:05:19;97902.31;;;14.61;57.15
28267;BME280;15525;45.568;5.448;2023-03-13T02:08:00;97974.53;;;15.05;57.74
28267;BME280;15525;45.568;5.448;2023-03-13T02:10:28;97935.06;;;14.82;56.95
28267;BME280;15525;45.568;5.448;2023-03-13T02:12:54;97954.25;;;14.94;57.01
28267;BME280;15525;45.568;5.448;2023-03-13T02:15:21;97968.44;;;15.13;57.02
28267;BME280;15525;45.568;5.448;2023-03-13T02:17:48;97976.53;;;15.13;57.00
28267;BME280;15525;45.568;5.448;2023-03-13T02:20:17;97957.03;;;15.02;57.18
28267;BME280;15525;45.568;5.448;2023-03-13T02:28:06;97915.72;;;14.93;56.87
28267;BME280;15525;45.568;5.448;2023-03-13T02:30:33;97944.78;;;14.96;56.59
28267;BME280;15525;45.568;5.448;2023-03-13T02:32:59;97924.41;;;14.90;56.54
28267;BME280;15525;45.568;5.448;2023-03-13T02:35:25;97966.03;;;15.25;56.75
28267;BME280;15525;45.568;5.448;2023-03-13T02:37:56;97917.44;;;14.89;57.25
28267;BME280;15525;45.568;5.448;2023-03-13T02:40:27;97922.41;;;14.82;56.88
28267;BME280;15525;45.568;5.448;2023-03-13T02:42:55;97969.31;;;15.22;57.28
28267;BME280;15525;45.568;5.448;2023-03-13T02:45:21;97926.72;;;14.97;56.59
28267;BME280;15525;45.568;5.448;2023-03-13T02:47:46;97929.91;;;14.99;56.73
28267;BME280;15525;45.568;5.448;2023-03-13T02:50:13;97920.72;;;14.86;57.30
28267;BME280;15525;45.568;5.448;2023-03-13T02:52:42;97951.66;;;15.02;57.53
28267;BME280;15525;45.568;5.448;2023-03-13T02:55:12;97977.81;;;15.15;57.39
28267;BME280;15525;45.568;5.448;2023-03-13T02:57:42;97967.75;;;15.07;57.69
28267;BME280;15525;45.568;5.448;2023-03-13T03:00:08;97963.66;;;15.10;57.91
28267;BME280;15525;45.568;5.448;2023-03-13T03:02:37;97917.91;;;14.91;57.87
28267;BME280;15525;45.568;5.448;2023-03-13T03:05:03;97919.13;;;14.85;58.10
28267;BME280;15525;45.568;5.448;2023-03-13T03:07:29;97899.94;;;14.73;57.78
28267;BME280;15525;45.568;5.448;2023-03-13T03:09:55;97904.34;;;14.69;57.97
28267;BME280;15525;45.568;5.448;2023-03-13T03:12:20;97897.25;;;14.60;57.92
28267;BME280;15525;45.568;5.448;2023-03-13T03:14:46;97876.19;;;14.48;58.05
28267;BME280;15525;45.568;5.448;2023-03-13T03:17:11;97891.97;;;14.68;57.86
28267;BME280;15525;45.568;5.448;2023-03-13T03:19:37;97825.09;;;14.30;58.08
28267;BME280;15525;45.568;5.448;2023-03-13T03:22:03;97876.00;;;14.58;57.85
28267;BME280;15525;45.568;5.448;2023-03-13T03:24:29;97864.13;;;14.46;57.45
28267;BME280;15525;45.568;5.448;2023-03-13T03:26:54;97870.38;;;14.41;57.87
28267;BME280;15525;45.568;5.448;2023-03-13T03:29:19;97921.50;;;14.73;58.18
28267;BME280;15525;45.568;5.448;2023-03-13T03:31:45;97915.91;;;14.70;58.23
28267;BME280;15525;45.568;5.448;2023-03-13T03:34:10;97879.81;;;14.57;58.11
28267;BME280;15525;45.568;5.448;2023-03-13T03:36:36;97910.34;;;14.66;57.78
28267;BME280;15525;45.568;5.448;2023-03-13T03:39:01;97913.53;;;14.68;58.21
28267;BME280;15525;45.568;5.448;2023-03-13T03:41:27;97875.47;;;14.56;57.65
28267;BME280;15525;45.568;5.448;2023-03-13T03:43:52;97898.94;;;14.69;58.05
28267;BME280;15525;45.568;5.448;2023-03-13T03:46:17;97908.94;;;14.82;57.32
28267;BME280;15525;45.568;5.448;2023-03-13T03:48:43;97848.25;;;14.44;57.52
28267;BME280;15525;45.568;5.448;2023-03-13T03:51:08;97844.56;;;14.54;57.34
28267;BME280;15525;45.568;5.448;2023-03-13T03:53:34;97804.28;;;14.35;57.40
28267;BME280;15525;45.568;5.448;2023-03-13T03:56:00;97844.88;;;14.52;57.38
28267;BME280;15525;45.568;5.448;2023-03-13T03:58:25;97875.00;;;14.81;57.30
28267;BME280;15525;45.568;5.448;2023-03-13T04:00:51;97882.19;;;14.86;57.69
28267;BME280;15525;45.568;5.448;2023-03-13T04:03:16;97889.78;;;14.84;58.18
28267;BME280;15525;45.568;5.448;2023-03-13T04:05:42;97873.31;;;14.72;57.96
28267;BME280;15525;45.568;5.448;2023-03-13T04:08:08;97914.81;;;14.98;57.77
28267;BME280;15525;45.568;5.448;2023-03-13T04:10:34;97871.22;;;14.82;57.86
28267;BME280;15525;45.568;5.448;2023-03-13T04:13:00;97902.06;;;15.03;57.57
28267;BME280;15525;45.568;5.448;2023-03-13T04:15:25;97840.88;;;14.63;57.59
28267;BME280;15525;45.568;5.448;2023-03-13T04:17:50;97808.97;;;14.43;57.47
28267;BME280;15525;45.568;5.448;2023-03-13T04:20:16;97863.00;;;14.87;57.29
28267;BME280;15525;45.568;5.448;2023-03-13T04:22:42;97897.56;;;15.12;57.15
28267;BME280;15525;45.568;5.448;2023-03-13T04:25:08;97801.69;;;14.57;57.07
28267;BME280;15525;45.568;5.448;2023-03-13T04:27:34;97886.66;;;15.17;56.93
28267;BME280;15525;45.568;5.448;2023-03-13T04:30:00;97850.84;;;15.03;57.34
28267;BME280;15525;45.568;5.448;2023-03-13T04:32:25;97801.97;;;14.69;57.02
28267;BME280;15525;45.568;5.448;2023-03-13T04:34:51;97861.63;;;15.03;57.23
28267;BME280;15525;45.568;5.448;2023-03-13T04:37:17;97854.59;;;15.02;57.27
28267;BME280;15525;45.568;5.448;2023-03-13T04:39:43;97822.22;;;14.80;56.86
28267;BME280;15525;45.568;5.448;2023-03-13T04:42:09;97788.31;;;14.66;56.81
28267;BME280;15525;45.568;5.448;2023-03-13T04:44:35;97837.66;;;15.02;56.70
28267;BME280;15525;45.568;5.448;2023-03-13T04:47:01;97871.97;;;15.23;56.65
28267;BME280;15525;45.568;5.448;2023-03-13T04:49:26;97774.03;;;14.65;56.69
28267;BME280;15525;45.568;5.448;2023-03-13T04:51:52;97740.91;;;14.51;56.59
28267;BME280;15525;45.568;5.448;2023-03-13T04:54:17;97779.28;;;14.84;56.61
28267;BME280;15525;45.568;5.448;2023-03-13T04:56:43;97767.44;;;14.71;56.70
28267;BME280;15525;45.568;5.448;2023-03-13T04:59:10;97844.41;;;15.26;56.21
28267;BME280;15525;45.568;5.448;2023-03-13T05:01:36;97820.06;;;15.04;56.30
28267;BME280;15525;45.568;5.448;2023-03-13T05:04:03;97817.88;;;15.06;56.15
28267;BME280;15525;45.568;5.448;2023-03-13T05:06:29;97805.31;;;15.02;56.05
28267;BME280;15525;45.568;5.448;2023-03-13T05:08:54;97830.06;;;15.04;56.17
28267;BME280;15525;45.568;5.448;2023-03-13T05:11:20;97834.91;;;15.15;56.45
28267;BME280;15525;45.568;5.448;2023-03-13T05:13:45;97825.69;;;14.94;56.07
28267;BME280;15525;45.568;5.448;2023-03-13T05:16:11;97816.44;;;14.87;56.33
28267;BME280;15525;45.568;5.448;2023-03-13T05:18:36;97722.31;;;14.28;56.40
28267;BME280;15525;45.568;5.448;2023-03-13T05:21:03;97734.97;;;14.27;56.10
28267;BME280;15525;45.568;5.448;2023-03-13T05:23:29;97738.75;;;14.26;56.42
28267;BME280;15525;45.568;5.448;2023-03-13T05:25:54;97812.31;;;14.76;56.48
28267;BME280;15525;45.568;5.448;2023-03-13T05:28:19;97804.47;;;14.66;56.83
28267;BME280;15525;45.568;5.448;2023-03-13T05:30:45;97736.72;;;14.18;56.46
28267;BME280;15525;45.568;5.448;2023-03-13T05:33:10;97716.59;;;14.02;57.05
28267;BME280;15525;45.568;5.448;2023-03-13T05:35:36;97766.16;;;14.28;56.75
28267;BME280;15525;45.568;5.448;2023-03-13T05:38:01;97802.47;;;14.44;57.36
28267;BME280;15525;45.568;5.448;2023-03-13T05:40:27;97796.41;;;14.25;57.10
28267;BME280;15525;45.568;5.448;2023-03-13T05:42:52;97789.16;;;14.07;57.52
28267;BME280;15525;45.568;5.448;2023-03-13T05:45:17;97779.56;;;14.01;57.53
28267;BME280;15525;45.568;5.448;2023-03-13T05:47:43;97831.19;;;14.35;57.59
28267;BME280;15525;45.568;5.448;2023-03-13T05:50:09;97775.81;;;14.02;57.46
28267;BME280;15525;45.568;5.448;2023-03-13T05:52:35;97789.56;;;14.14;56.99
28267;BME280;15525;45.568;5.448;2023-03-13T05:55:01;97810.06;;;14.29;57.26
28267;BME280;15525;45.568;5.448;2023-03-13T05:57:26;97752.84;;;13.91;57.12
28267;BME280;15525;45.568;5.448;2023-03-13T05:59:51;97715.88;;;13.70;57.04
28267;BME280;15525;45.568;5.448;2023-03-13T06:02:17;97792.22;;;13.87;57.49
28267;BME280;15525;45.568;5.448;2023-03-13T06:04:42;97751.63;;;13.70;57.36
28267;BME280;15525;45.568;5.448;2023-03-13T06:07:08;97728.09;;;13.62;57.21
28267;BME280;15525;45.568;5.448;2023-03-13T06:09:33;97776.78;;;13.79;57.73
28267;BME280;15525;45.568;5.448;2023-03-13T06:11:59;97816.28;;;14.11;57.30
28267;BME280;15525;45.568;5.448;2023-03-13T06:14:24;97786.56;;;14.02;57.41
28267;BME280;15525;45.568;5.448;2023-03-13T06:16:50;97784.78;;;14.11;57.28
28267;BME280;15525;45.568;5.448;2023-03-13T06:19:15;97711.88;;;13.67;57.63
28267;BME280;15525;45.568;5.448;2023-03-13T06:21:41;97705.81;;;13.75;57.32
28267;BME280;15525;45.568;5.448;2023-03-13T06:24:07;97787.81;;;14.23;57.22
28267;BME280;15525;45.568;5.448;2023-03-13T06:26:33;97738.44;;;14.01;57.68
28267;BME280;15525;45.568;5.448;2023-03-13T06:28:58;97769.84;;;14.19;57.49
28267;BME280;15525;45.568;5.448;2023-03-13T06:31:23;97747.78;;;14.03;57.76
28267;BME280;15525;45.568;5.448;2023-03-13T06:33:55;97768.13;;;14.09;57.67
28267;BME280;15525;45.568;5.448;2023-03-13T06:36:23;97745.31;;;13.93;57.98
28267;BME280;15525;45.568;5.448;2023-03-13T06:38:49;97706.00;;;13.79;57.61
28267;BME280;15525;45.568;5.448;2023-03-13T06:41:15;97697.03;;;13.83;57.30
28267;BME280;15525;45.568;5.448;2023-03-13T06:43:40;97638.84;;;13.60;57.00
28267;BME280;15525;45.568;5.448;2023-03-13T06:46:07;97766.06;;;14.47;57.10
28267;BME280;15525;45.568;5.448;2023-03-13T06:48:33;97729.75;;;14.31;57.13
28267;BME280;15525;45.568;5.448;2023-03-13T06:50:59;97747.94;;;14.52;56.55
28267;BME280;15525;45.568;5.448;2023-03-13T06:53:24;97757.75;;;14.70;56.73
28267;BME280;15525;45.568;5.448;2023-03-13T06:55:50;97736.03;;;14.53;56.77
28267;BME280;15525;45.568;5.448;2023-03-13T06:58:17;97740.50;;;14.58;56.22
28267;BME280;15525;45.568;5.448;2023-03-13T07:00:42;97729.72;;;14.71;55.80
28267;BME280;15525;45.568;5.448;2023-03-13T07:03:09;97774.53;;;15.16;55.31
28267;BME280;15525;45.568;5.448;2023-03-13T07:05:35;97734.56;;;15.18;54.75
28267;BME280;15525;45.568;5.448;2023-03-13T07:08:01;97699.38;;;15.01;54.72
28267;BME280;15525;45.568;5.448;2023-03-13T07:10:26;97733.09;;;15.34;54.43
28267;BME280;15525;45.568;5.448;2023-03-13T07:12:52;97721.59;;;15.42;53.99
28267;BME280;15525;45.568;5.448;2023-03-13T07:15:17;97759.44;;;15.81;53.81
28267;BME280;15525;45.568;5.448;2023-03-13T07:17:42;97708.31;;;15.76;53.52
28267;BME280;15525;45.568;5.448;2023-03-13T07:20:08;97775.88;;;16.32;53.16
28267;BME280;15525;45.568;5.448;2023-03-13T07:22:36;97757.03;;;16.41;52.60
28267;BME280;15525;45.568;5.448;2023-03-13T07:25:03;97773.50;;;16.78;51.79
28267;BME280;15525;45.568;5.448;2023-03-13T07:27:29;97714.97;;;16.74;51.67
28267;BME280;15525;45.568;5.448;2023-03-13T07:29:54;97707.69;;;16.91;51.23
28267;BME280;15525;45.568;5.448;2023-03-13T07:32:19;97722.34;;;17.16;51.07
28267;BME280;15525;45.568;5.448;2023-03-13T07:34:45;97731.38;;;17.54;49.97
28267;BME280;15525;45.568;5.448;2023-03-13T07:37:11;97720.50;;;17.79;49.30
28267;BME280;15525;45.568;5.448;2023-03-13T07:39:36;97734.78;;;17.97;49.37
28267;BME280;15525;45.568;5.448;2023-03-13T07:42:02;97712.09;;;18.10;49.19
28267;BME280;15525;45.568;5.448;2023-03-13T07:44:27;97730.19;;;18.35;48.86
28267;BME280;15525;45.568;5.448;2023-03-13T07:46:53;97666.59;;;17.95;48.98
28267;BME280;15525;45.568;5.448;2023-03-13T07:49:18;97711.91;;;18.15;49.29
28267;BME280;15525;45.568;5.448;2023-03-13T07:51:44;97719.72;;;18.16;49.43
28267;BME280;15525;45.568;5.448;2023-03-13T07:54:12;97739.63;;;18.20;49.57
28267;BME280;15525;45.568;5.448;2023-03-13T07:56:38;97753.63;;;18.31;49.21
28267;BME280;15525;45.568;5.448;2023-03-13T07:59:04;97744.84;;;18.34;49.06
28267;BME280;15525;45.568;5.448;2023-03-13T08:01:29;97650.28;;;17.74;49.11
28267;BME280;15525;45.568;5.448;2023-03-13T08:03:55;97738.50;;;18.30;49.26
28267;BME280;15525;45.568;5.448;2023-03-13T08:06:22;97752.16;;;18.42;48.90
28267;BME280;15525;45.568;5.448;2023-03-13T08:08:49;97705.06;;;18.17;48.52
28267;BME280;15525;45.568;5.448;2023-03-13T08:11:20;97765.84;;;18.45;48.40
28267;BME280;15525;45.568;5.448;2023-03-13T08:13:47;97744.25;;;18.57;48.58
28267;BME280;15525;45.568;5.448;2023-03-13T08:16:34;97691.38;;;18.51;47.32
28267;BME280;15525;45.568;5.448;2023-03-13T08:19:01;97717.44;;;18.64;48.09
28267;BME280;15525;45.568;5.448;2023-03-13T08:21:30;97669.94;;;18.29;47.90
28267;BME280;15525;45.568;5.448;2023-03-13T08:23:58;97734.19;;;18.87;48.04
28267;BME280;15525;45.568;5.448;2023-03-13T08:26:26;97700.69;;;18.83;47.68
28267;BME280;15525;45.568;5.448;2023-03-13T08:28:57;97726.91;;;19.20;47.14
28267;BME280;15525;45.568;5.448;2023-03-13T08:31:25;97681.72;;;19.03;46.88
28267;BME280;15525;45.568;5.448;2023-03-13T08:33:51;97697.72;;;19.37;46.66
28267;BME280;15525;45.568;5.448;2023-03-13T08:36:30;97687.25;;;19.27;46.64
28267;BME280;15525;45.568;5.448;2023-03-13T08:39:03;97659.22;;;19.23;46.79
28267;BME280;15525;45.568;5.448;2023-03-13T08:41:32;97693.56;;;19.52;46.60
28267;BME280;15525;45.568;5.448;2023-03-13T08:44:00;97679.38;;;19.67;46.73
28267;BME280;15525;45.568;5.448;2023-03-13T08:46:28;97663.41;;;19.65;45.95
28267;BME280;15525;45.568;5.448;2023-03-13T08:48:54;97593.00;;;19.04;46.24
28267;BME280;15525;45.568;5.448;2023-03-13T08:51:22;97654.94;;;19.67;45.81
28267;BME280;15525;45.568;5.448;2023-03-13T08:53:48;97617.59;;;19.76;45.57
28267;BME280;15525;45.568;5.448;2023-03-13T08:56:16;97657.81;;;20.18;44.86
28267;BME280;15525;45.568;5.448;2023-03-13T08:58:42;97642.75;;;20.33;44.74
28267;BME280;15525;45.568;5.448;2023-03-13T09:01:10;97596.78;;;20.16;44.62
28267;BME280;15525;45.568;5.448;2023-03-13T09:03:36;97637.19;;;20.41;44.50
28267;BME280;15525;45.568;5.448;2023-03-13T09:06:02;97645.47;;;20.33;44.83
28267;BME280;15525;45.568;5.448;2023-03-13T09:08:28;97648.66;;;20.23;44.64
28267;BME280;15525;45.568;5.448;2023-03-13T09:10:59;97597.81;;;20.11;44.08
28267;BME280;15525;45.568;5.448;2023-03-13T09:13:25;97603.44;;;20.30;44.41
28267;BME280;15525;45.568;5.448;2023-03-13T09:15:55;97584.59;;;20.49;43.41
28267;BME280;15525;45.568;5.448;2023-03-13T09:18:21;97572.34;;;20.55;43.30
28267;BME280;15525;45.568;5.448;2023-03-13T09:20:47;97586.13;;;20.74;43.17
28267;BME280;15525;45.568;5.448;2023-03-13T09:23:12;97542.25;;;20.36;42.94
28267;BME280;15525;45.568;5.448;2023-03-13T09:25:38;97595.38;;;20.98;42.80
28267;BME280;15525;45.568;5.448;2023-03-13T09:28:03;97599.91;;;20.94;42.69
28267;BME280;15525;45.568;5.448;2023-03-13T09:30:29;97555.50;;;20.77;42.57
28267;BME280;15525;45.568;5.448;2023-03-13T09:32:54;97603.31;;;21.18;42.23
28267;BME280;15525;45.568;5.448;2023-03-13T09:35:20;97500.31;;;20.49;42.22
28267;BME280;15525;45.568;5.448;2023-03-13T09:37:45;97579.47;;;20.87;42.43
28267;BME280;15525;45.568;5.448;2023-03-13T09:40:16;97608.72;;;21.03;40.80
28267;BME280;15525;45.568;5.448;2023-03-13T09:42:48;97604.81;;;21.16;41.03
28267;BME280;15525;45.568;5.448;2023-03-13T09:48:07;97576.78;;;21.15;41.31
28267;BME280;15525;45.568;5.448;2023-03-13T09:50:39;97598.88;;;21.41;41.25
28267;BME280;15525;45.568;5.448;2023-03-13T09:53:17;97601.81;;;21.79;40.28
28267;BME280;15525;45.568;5.448;2023-03-13T09:55:45;97594.00;;;22.28;40.22
28267;BME280;15525;45.568;5.448;2023-03-13T09:58:20;97587.50;;;22.86;37.69
28267;BME280;15525;45.568;5.448;2023-03-13T10:01:05;97554.66;;;22.63;38.91
28267;BME280;15525;45.568;5.448;2023-03-13T10:03:36;97570.41;;;22.51;37.66
28267;BME280;15525;45.568;5.448;2023-03-13T10:06:10;97587.06;;;22.65;38.29
28267;BME280;15525;45.568;5.448;2023-03-13T10:08:38;97557.69;;;22.96;38.56
28267;BME280;15525;45.568;5.448;2023-03-13T10:11:09;97594.50;;;23.44;38.05
28267;BME280;15525;45.568;5.448;2023-03-13T10:14:05;97581.88;;;23.36;36.98
28267;BME280;15525;45.568;5.448;2023-03-13T10:16:43;97581.09;;;23.16;36.71
28267;BME280;15525;45.568;5.448;2023-03-13T10:19:15;97573.88;;;22.67;36.97
28267;BME280;15525;45.568;5.448;2023-03-13T10:21:43;97529.97;;;22.03;36.95
28267;BME280;15525;45.568;5.448;2023-03-13T10:26:47;97568.63;;;22.08;37.87
28267;BME280;15525;45.568;5.448;2023-03-13T10:29:21;97563.72;;;22.48;36.91
28267;BME280;15525;45.568;5.448;2023-03-13T10:32:04;97560.09;;;22.44;36.48
28267;BME280;15525;45.568;5.448;2023-03-13T10:37:16;97523.88;;;22.63;35.42
28267;BME280;15525;45.568;5.448;2023-03-13T10:39:43;97517.97;;;22.80;35.75
28267;BME280;15525;45.568;5.448;2023-03-13T10:42:30;97523.53;;;23.25;34.61
28267;BME280;15525;45.568;5.448;2023-03-13T10:45:00;97519.19;;;23.01;35.41
28267;BME280;15525;45.568;5.448;2023-03-13T10:47:26;97523.53;;;23.06;35.51
28267;BME280;15525;45.568;5.448;2023-03-13T10:49:56;97505.19;;;23.48;35.31
28267;BME280;15525;45.568;5.448;2023-03-13T10:52:34;97510.34;;;23.53;34.88
28267;BME280;15525;45.568;5.448;2023-03-13T10:55:03;97508.38;;;23.76;35.39
28267;BME280;15525;45.568;5.448;2023-03-13T10:57:34;97504.09;;;24.01;33.88
28267;BME280;15525;45.568;5.448;2023-03-13T11:00:04;97492.84;;;23.57;34.38
28267;BME280;15525;45.568;5.448;2023-03-13T11:02:52;97492.72;;;23.99;34.74
28267;BME280;15525;45.568;5.448;2023-03-13T11:07:53;97499.84;;;24.62;33.76
28267;BME280;15525;45.568;5.448;2023-03-13T11:10:26;97494.03;;;24.08;33.33
28267;BME280;15525;45.568;5.448;2023-03-13T11:12:55;97488.97;;;24.40;33.37
28267;BME280;15525;45.568;5.448;2023-03-13T11:15:26;97442.78;;;24.35;32.85
28267;BME280;15525;45.568;5.448;2023-03-13T11:20:43;97457.94;;;24.25;33.34
28267;BME280;15525;45.568;5.448;2023-03-13T11:23:33;97464.28;;;24.62;32.25
28267;BME280;15525;45.568;5.448;2023-03-13T11:26:11;97454.16;;;24.66;32.55
28267;BME280;15525;45.568;5.448;2023-03-13T11:31:20;97468.09;;;24.91;32.96
28267;BME280;15525;45.568;5.448;2023-03-13T11:50:11;97395.53;;;25.18;32.60
28267;BME280;15525;45.568;5.448;2023-03-13T11:52:51;97393.47;;;25.48;31.98
28267;BME280;15525;45.568;5.448;2023-03-13T12:00:43;97389.88;;;26.01;32.60
28267;BME280;15525;45.568;5.448;2023-03-13T12:05:50;97354.09;;;25.84;32.96
28267;BME280;15525;45.568;5.448;2023-03-13T12:11:05;97362.72;;;25.79;33.09
28267;BME280;15525;45.568;5.448;2023-03-13T12:13:40;97356.19;;;26.04;32.42
28267;BME280;15525;45.568;5.448;2023-03-13T12:16:09;97346.47;;;26.38;31.68
28267;BME280;15525;45.568;5.448;2023-03-13T12:18:43;97315.91;;;26.50;32.12
28267;BME280;15525;45.568;5.448;2023-03-13T12:21:27;97328.75;;;26.01;32.41
28267;BME280;15525;45.568;5.448;2023-03-13T12:24:12;97288.34;;;25.98;32.23
28267;BME280;15525;45.568;5.448;2023-03-13T12:29:26;97298.28;;;26.44;32.08
28267;BME280;15525;45.568;5.448;2023-03-13T12:32:00;97227.28;;;26.60;31.58
28267;BME280;15525;45.568;5.448;2023-03-13T12:34:33;97296.72;;;27.10;31.19
28267;BME280;15525;45.568;5.448;2023-03-13T12:42:18;97271.22;;;26.78;32.16
28267;BME280;15525;45.568;5.448;2023-03-13T12:44:46;97231.22;;;26.42;32.48
28267;BME280;15525;45.568;5.448;2023-03-13T12:47:19;97245.72;;;26.53;32.61
28267;BME280;15525;45.568;5.448;2023-03-13T12:58:12;97197.06;;;26.18;33.26
28267;BME280;15525;45.568;5.448;2023-03-13T13:00:41;97151.19;;;26.26;33.24
28267;BME280;15525;45.568;5.448;2023-03-13T13:06:09;97183.75;;;26.24;33.52
28267;BME280;15525;45.568;5.448;2023-03-13T13:14:12;97111.16;;;26.77;32.96
28267;BME280;15525;45.568;5.448;2023-03-13T13:25:26;97085.81;;;27.96;31.87
28267;BME280;15525;45.568;5.448;2023-03-13T13:27:52;97091.91;;;27.60;32.71
28267;BME280;15525;45.568;5.448;2023-03-13T13:32:45;97045.97;;;26.85;32.92
28267;BME280;15525;45.568;5.448;2023-03-13T13:35:46;97047.56;;;26.82;32.81
28267;BME280;15525;45.568;5.448;2023-03-13T13:38:31;97047.25;;;26.49;33.29
28267;BME280;15525;45.568;5.448;2023-03-13T13:43:39;97063.53;;;27.05;32.97
28267;BME280;15525;45.568;5.448;2023-03-13T13:46:21;97064.88;;;26.55;33.76
28267;BME280;15525;45.568;5.448;2023-03-13T13:51:41;97031.19;;;26.33;33.99
28267;BME280;15525;45.568;5.448;2023-03-13T13:54:33;97036.66;;;26.47;33.83
28267;BME280;15525;45.568;5.448;2023-03-13T13:57:20;97015.09;;;26.60;33.86
28267;BME280;15525;45.568;5.448;2023-03-13T14:00:22;96988.78;;;26.66;33.76
28267;BME280;15525;45.568;5.448;2023-03-13T14:02:52;96984.38;;;26.82;33.42
28267;BME280;15525;45.568;5.448;2023-03-13T14:05:28;97008.38;;;26.68;34.35
28267;BME280;15525;45.568;5.448;2023-03-13T14:10:44;96997.84;;;27.31;33.50
28267;BME280;15525;45.568;5.448;2023-03-13T14:13:17;96963.50;;;26.95;33.25
28267;BME280;15525;45.568;5.448;2023-03-13T14:15:45;96977.81;;;27.31;33.71
28267;BME280;15525;45.568;5.448;2023-03-13T14:18:25;96961.03;;;27.11;33.54
28267;BME280;15525;45.568;5.448;2023-03-13T14:20:58;96969.47;;;27.45;33.92
28267;BME280;15525;45.568;5.448;2023-03-13T14:23:37;96936.63;;;27.27;33.60
28267;BME280;15525;45.568;5.448;2023-03-13T14:26:23;96951.88;;;27.35;33.87
28267;BME280;15525;45.568;5.448;2023-03-13T14:28:53;96962.84;;;26.70;34.47
28267;BME280;15525;45.568;5.448;2023-03-13T14:31:28;96865.81;;;26.15;34.51
28267;BME280;15525;45.568;5.448;2023-03-13T14:33:58;96915.56;;;27.00;33.99
28267;BME280;15525;45.568;5.448;2023-03-13T14:36:24;96936.47;;;26.87;34.43
28267;BME280;15525;45.568;5.448;2023-03-13T14:38:58;96954.38;;;26.37;35.24
28267;BME280;15525;45.568;5.448;2023-03-13T14:41:35;96918.78;;;25.91;35.72